createdAt,value
2022-07-25T00:02:08.887Z,95064.28
2022-07-25T00:04:36.047Z,95052.09
2022-07-25T00:07:03.282Z,95065.25
2022-07-25T00:09:30.083Z,95052.28
2022-07-25T00:12:02.886Z,95053.38
2022-07-25T00:14:32.853Z,95053.56
2022-07-25T00:16:59.742Z,95051.25
2022-07-25T00:19:26.616Z,95040.53
2022-07-25T00:21:53.527Z,95030.97
2022-07-25T00:24:21.361Z,95045.91
2022-07-25T00:26:48.080Z,95042.56
2022-07-25T00:29:15.011Z,95037.06
2022-07-25T00:31:42.063Z,95026.09
2022-07-25T00:34:09.500Z,95035.16
2022-07-25T00:36:36.650Z,95037.16
2022-07-25T00:39:04.448Z,95025.06
2022-07-25T00:41:31.814Z,95025.19
2022-07-25T00:43:58.665Z,95023.28
2022-07-25T00:46:25.778Z,95025.44
2022-07-25T00:48:54.338Z,95020.72
2022-07-25T00:51:21.282Z,95008.69
2022-07-25T00:53:48.328Z,95018.56
2022-07-25T00:56:16.227Z,95027.84
2022-07-25T00:58:45.597Z,95026.41
2022-07-25T01:01:13.899Z,95009.88
2022-07-25T01:03:40.872Z,95029.91
2022-07-25T01:06:08.396Z,95026.75
2022-07-25T01:08:35.896Z,95025.81
2022-07-25T01:11:03.198Z,95024.47
2022-07-25T01:13:33.595Z,95025.25
2022-07-25T01:16:00.801Z,95023.34
2022-07-25T01:18:27.672Z,95018.44
2022-07-25T01:20:54.624Z,95029.72
2022-07-25T01:23:21.598Z,95023.94
2022-07-25T01:25:48.635Z,95012.19
2022-07-25T01:28:15.415Z,95021.97
2022-07-25T01:30:42.424Z,95012.19
2022-07-25T01:33:09.268Z,95019.84
2022-07-25T01:35:40.190Z,95025.06
2022-07-25T01:38:10.005Z,95027.72
2022-07-25T01:40:36.997Z,95024.59
2022-07-25T01:43:04.198Z,95024.41
2022-07-25T01:45:31.515Z,95028.91
2022-07-25T01:47:58.689Z,95014.97
2022-07-25T01:50:25.606Z,95027.34
2022-07-25T01:52:52.443Z,95023.59
2022-07-25T01:55:19.442Z,95016.16
2022-07-25T01:57:49.561Z,95019.00
2022-07-25T02:00:17.582Z,95002.81
2022-07-25T02:02:44.949Z,95014.63
2022-07-25T02:05:13.706Z,95012.44
2022-07-25T02:07:40.516Z,95014.19
2022-07-25T02:10:08.453Z,95027.34
2022-07-25T02:12:35.233Z,95023.16
2022-07-25T02:15:02.096Z,95019.09
2022-07-25T02:17:29.023Z,95023.59
2022-07-25T02:19:55.923Z,95023.41
2022-07-25T02:22:22.719Z,95029.09
2022-07-25T02:24:50.573Z,95030.44
2022-07-25T02:27:17.457Z,95024.75
2022-07-25T02:29:45.240Z,95028.66
2022-07-25T02:32:12.063Z,95034.25
2022-07-25T02:34:39.169Z,95024.56
2022-07-25T02:37:05.995Z,95024.16
2022-07-25T02:39:32.933Z,95025.69
2022-07-25T02:41:59.783Z,95017.63
2022-07-25T02:44:26.617Z,95026.47
2022-07-25T02:46:53.404Z,95020.75
2022-07-25T02:49:20.235Z,95019.75
2022-07-25T02:51:47.132Z,95020.75
2022-07-25T02:54:14.324Z,95020.56
2022-07-25T02:56:41.347Z,95033.50
2022-07-25T02:59:08.535Z,95028.78
2022-07-25T03:01:35.496Z,95024.78
2022-07-25T03:04:02.453Z,95032.22
2022-07-25T03:06:29.468Z,95025.50
2022-07-25T03:08:56.381Z,95023.53
2022-07-25T03:11:23.528Z,95025.47
2022-07-25T03:13:50.314Z,95029.50
2022-07-25T03:16:17.220Z,95023.78
2022-07-25T03:18:44.075Z,95027.53
2022-07-25T03:21:11.021Z,95029.28
2022-07-25T03:23:37.862Z,95015.56
2022-07-25T03:26:05.244Z,95027.56
2022-07-25T03:28:32.146Z,95018.38
2022-07-25T03:30:58.974Z,95013.84
2022-07-25T03:33:25.776Z,95011.22
2022-07-25T03:35:52.628Z,95023.59
2022-07-25T03:38:19.527Z,95026.22
2022-07-25T03:40:46.290Z,95024.16
2022-07-25T03:43:13.151Z,95027.56
2022-07-25T03:45:40.007Z,95028.59
2022-07-25T03:48:07.117Z,95017.81
2022-07-25T03:50:34.106Z,95030.84
2022-07-25T03:53:01.037Z,95030.84
2022-07-25T03:55:28.140Z,95027.09
2022-07-25T03:57:54.950Z,95022.44
2022-07-25T04:00:22.105Z,95027.09
2022-07-25T04:02:49.035Z,95036.50
2022-07-25T04:05:15.919Z,95030.72
2022-07-25T04:07:42.677Z,95042.22
2022-07-25T04:10:10.242Z,95033.22
2022-07-25T04:12:37.663Z,95022.22
2022-07-25T04:15:05.369Z,95036.28
2022-07-25T04:17:32.403Z,95039.94
2022-07-25T04:19:59.615Z,95023.63
2022-07-25T04:22:27.038Z,95034.84
2022-07-25T04:24:55.420Z,95031.91
2022-07-25T04:27:22.491Z,95032.34
2022-07-25T04:29:49.314Z,95035.47
2022-07-25T04:32:21.415Z,95032.25
2022-07-25T04:34:51.512Z,95035.31
2022-07-25T04:37:18.343Z,95034.75
2022-07-25T04:39:45.079Z,95038.28
2022-07-25T04:42:11.881Z,95039.06
2022-07-25T04:44:38.677Z,95041.13
2022-07-25T04:47:05.787Z,95040.25
2022-07-25T04:49:32.586Z,95042.22
2022-07-25T04:51:59.397Z,95039.50
2022-07-25T04:54:26.150Z,95040.47
2022-07-25T04:56:52.936Z,95034.59
2022-07-25T04:59:19.750Z,95043.03
2022-07-25T05:01:46.520Z,95043.50
2022-07-25T05:04:13.317Z,95038.22
2022-07-25T05:06:40.083Z,95042.13
2022-07-25T05:09:06.906Z,95042.47
2022-07-25T05:11:33.737Z,95045.69
2022-07-25T05:14:01.609Z,95036.69
2022-07-25T05:16:28.519Z,95031.28
2022-07-25T05:18:55.393Z,95044.81
2022-07-25T05:21:22.247Z,95039.88
2022-07-25T05:23:49.170Z,95046.56
2022-07-25T05:26:15.954Z,95043.19
2022-07-25T05:28:42.700Z,95043.47
2022-07-25T05:31:09.536Z,95038.81
2022-07-25T05:33:36.389Z,95046.91
2022-07-25T05:36:04.424Z,95046.47
2022-07-25T05:38:31.606Z,95039.56
2022-07-25T05:40:58.375Z,95039.56
2022-07-25T05:43:25.204Z,95047.53
2022-07-25T05:45:52.341Z,95048.34
2022-07-25T05:48:19.128Z,95045.78
2022-07-25T05:50:46.203Z,95049.09
2022-07-25T05:53:13.157Z,95054.75
2022-07-25T05:55:40.698Z,95050.22
2022-07-25T05:58:09.493Z,95045.72
2022-07-25T06:00:37.244Z,95046.25
2022-07-25T06:03:04.391Z,95045.97
2022-07-25T06:05:31.605Z,95041.84
2022-07-25T06:07:58.461Z,95037.47
2022-07-25T06:10:25.274Z,95032.34
2022-07-25T06:12:52.073Z,95043.22
2022-07-25T06:15:22.418Z,95037.44
2022-07-25T06:17:50.093Z,95031.97
2022-07-25T06:20:16.908Z,95031.09
2022-07-25T06:22:43.800Z,95032.69
2022-07-25T06:25:10.983Z,95038.41
2022-07-25T06:27:38.951Z,95032.31
2022-07-25T06:30:18.757Z,95029.66
2022-07-25T06:32:47.606Z,95033.09
2022-07-25T06:35:14.434Z,95038.28
2022-07-25T06:37:41.276Z,95031.88
2022-07-25T06:40:09.625Z,95037.47
2022-07-25T06:42:41.139Z,95005.25
2022-07-25T06:45:11.150Z,95030.88
2022-07-25T06:47:39.514Z,95034.66
2022-07-25T06:50:09.143Z,95034.59
2022-07-25T06:52:38.618Z,95029.53
2022-07-25T06:55:07.444Z,95031.34
2022-07-25T06:57:34.544Z,95009.69
2022-07-25T07:00:01.457Z,95032.53
2022-07-25T07:02:28.273Z,95031.50
2022-07-25T07:04:55.125Z,95027.06
2022-07-25T07:07:21.971Z,95017.63
2022-07-25T07:09:48.842Z,95018.53
2022-07-25T07:12:15.699Z,95015.94
2022-07-25T07:14:44.645Z,95015.16
2022-07-25T07:17:11.464Z,95016.47
2022-07-25T07:19:44.466Z,95013.88
2022-07-25T07:22:11.521Z,95017.94
2022-07-25T07:24:44.184Z,95015.78
2022-07-25T07:27:12.056Z,95016.47
2022-07-25T07:29:39.021Z,95017.47
2022-07-25T07:32:07.136Z,95015.91
2022-07-25T07:34:34.113Z,95013.81
2022-07-25T07:37:01.006Z,95002.47
2022-07-25T07:39:27.982Z,95008.88
2022-07-25T07:41:55.053Z,95004.53
2022-07-25T07:44:21.863Z,95011.94
2022-07-25T07:46:49.132Z,95009.84
2022-07-25T07:49:16.299Z,95007.97
2022-07-25T07:51:43.164Z,95007.25
2022-07-25T07:54:28.748Z,95009.25
2022-07-25T07:56:55.573Z,95007.94
2022-07-25T07:59:22.382Z,95006.78
2022-07-25T08:01:49.271Z,95001.66
2022-07-25T08:04:16.365Z,95005.69
2022-07-25T08:06:43.250Z,95005.66
2022-07-25T08:09:10.396Z,95007.00
2022-07-25T08:11:37.438Z,95006.31
2022-07-25T08:14:05.565Z,94999.31
2022-07-25T08:16:33.635Z,95011.31
2022-07-25T08:19:00.593Z,95004.25
2022-07-25T08:21:27.471Z,95012.78
2022-07-25T08:23:54.988Z,95010.66
2022-07-25T08:26:22.014Z,95006.56
2022-07-25T08:28:59.891Z,95012.31
2022-07-25T08:31:35.747Z,94993.06
2022-07-25T08:34:02.566Z,95011.09
2022-07-25T08:36:34.594Z,95000.66
2022-07-25T08:39:01.785Z,95007.25
2022-07-25T08:41:29.364Z,95009.34
2022-07-25T08:43:56.347Z,95000.66
2022-07-25T08:46:24.323Z,94999.44
2022-07-25T08:48:52.368Z,94999.13
2022-07-25T08:51:19.564Z,95005.47
2022-07-25T08:53:48.481Z,95009.09
2022-07-25T08:56:20.784Z,95001.81
2022-07-25T08:58:48.197Z,95000.88
2022-07-25T09:01:15.077Z,95000.75
2022-07-25T09:03:44.008Z,94995.91
2022-07-25T09:06:15.826Z,95000.53
2022-07-25T09:08:59.570Z,94984.78
2022-07-25T09:11:35.291Z,94993.91
2022-07-25T09:14:07.964Z,94986.88
2022-07-25T09:16:43.275Z,94981.13
2022-07-25T09:19:17.071Z,94992.97
2022-07-25T09:21:46.017Z,94988.94
2022-07-25T09:24:18.818Z,94982.22
2022-07-25T09:26:54.096Z,94982.88
2022-07-25T09:29:33.042Z,94978.72
2022-07-25T09:32:01.765Z,94982.41
2022-07-25T09:34:42.306Z,94981.31
2022-07-25T09:37:12.592Z,94969.44
2022-07-25T09:39:51.209Z,94985.91
2022-07-25T09:42:25.617Z,94973.31
2022-07-25T09:45:07.296Z,94969.72
2022-07-25T09:47:37.326Z,94973.41
2022-07-25T09:50:05.775Z,94973.34
2022-07-25T09:52:33.893Z,94965.03
2022-07-25T09:55:03.929Z,94977.28
2022-07-25T09:57:30.782Z,94965.63
2022-07-25T10:00:00.301Z,94973.38
2022-07-25T10:02:49.216Z,94978.19
2022-07-25T10:05:37.508Z,94972.06
2022-07-25T10:08:07.277Z,94979.19
2022-07-25T10:10:40.212Z,94981.66
2022-07-25T10:13:17.776Z,94982.44
2022-07-25T10:15:48.384Z,94983.34
2022-07-25T10:18:17.646Z,94978.06
2022-07-25T10:20:46.588Z,94977.19
2022-07-25T10:23:25.821Z,94973.97
2022-07-25T10:26:19.738Z,94970.03
2022-07-25T10:28:50.019Z,94970.19
2022-07-25T10:31:22.184Z,94971.34
2022-07-25T10:34:00.041Z,94960.25
2022-07-25T10:36:32.337Z,94971.31
2022-07-25T10:39:02.311Z,94961.53
2022-07-25T10:41:30.039Z,94967.06
2022-07-25T10:44:00.841Z,94967.81
2022-07-25T10:46:30.939Z,94960.44
2022-07-25T10:49:08.353Z,94960.84
2022-07-25T10:51:41.611Z,94953.13
2022-07-25T10:54:12.949Z,94955.09
2022-07-25T10:56:52.031Z,94964.75
2022-07-25T10:59:33.045Z,94959.69
2022-07-25T11:02:00.975Z,94955.84
2022-07-25T11:04:29.462Z,94960.84
2022-07-25T11:06:56.781Z,94946.84
2022-07-25T11:09:27.828Z,94952.63
2022-07-25T11:11:59.400Z,94938.13
2022-07-25T11:14:41.984Z,94940.75
2022-07-25T11:17:20.678Z,94949.53
2022-07-25T11:20:00.705Z,94953.09
2022-07-25T11:22:29.227Z,94941.34
2022-07-25T11:24:59.609Z,94939.63
2022-07-25T11:27:35.103Z,94941.00
2022-07-25T11:30:14.714Z,94937.19
2022-07-25T11:32:46.356Z,94934.81
2022-07-25T11:35:14.785Z,94926.44
2022-07-25T11:37:48.621Z,94921.28
2022-07-25T11:40:19.239Z,94904.38
2022-07-25T11:42:55.121Z,94918.34
2022-07-25T11:45:33.751Z,94911.38
2022-07-25T11:48:11.103Z,94920.91
2022-07-25T11:50:44.879Z,94920.34
2022-07-25T11:53:15.739Z,94926.63
2022-07-25T11:55:43.696Z,94922.84
2022-07-25T11:58:12.786Z,94914.44
2022-07-25T12:00:43.360Z,94926.06
2022-07-25T12:03:19.362Z,94914.81
2022-07-25T12:05:47.410Z,94895.81
2022-07-25T12:08:21.361Z,94907.38
2022-07-25T12:10:51.386Z,94888.09
2022-07-25T12:13:27.055Z,94906.66
2022-07-25T12:15:56.348Z,94905.91
2022-07-25T12:18:23.246Z,94899.28
2022-07-25T12:20:50.586Z,94894.94
2022-07-25T12:23:17.434Z,94895.59
2022-07-25T12:25:46.446Z,94895.47
2022-07-25T12:28:14.356Z,94883.91
2022-07-25T12:30:43.086Z,94890.16
2022-07-25T12:33:11.317Z,94893.38
2022-07-25T12:35:38.334Z,94886.59
2022-07-25T12:38:05.423Z,94878.13
2022-07-25T12:40:32.495Z,94883.88
2022-07-25T12:43:00.151Z,94881.00
2022-07-25T12:45:28.019Z,94884.63
2022-07-25T12:47:55.068Z,94892.69
2022-07-25T12:50:21.981Z,94885.00
2022-07-25T12:52:48.865Z,94880.00
2022-07-25T12:55:18.041Z,94878.38
2022-07-25T12:57:45.517Z,94876.13
2022-07-25T13:00:15.491Z,94870.59
2022-07-25T13:02:42.519Z,94871.41
2022-07-25T13:05:10.342Z,94871.91
2022-07-25T13:07:37.493Z,94867.19
2022-07-25T13:10:05.303Z,94867.56
2022-07-25T13:12:32.203Z,94860.63
2022-07-25T13:14:58.997Z,94864.25
2022-07-25T13:17:27.704Z,94872.91
2022-07-25T13:19:55.539Z,94868.16
2022-07-25T13:22:22.549Z,94873.78
2022-07-25T13:24:49.497Z,94854.56
2022-07-25T13:27:18.673Z,94867.31
2022-07-25T13:29:45.850Z,94863.16
2022-07-25T13:32:13.729Z,94862.69
2022-07-25T13:34:40.680Z,94849.25
2022-07-25T13:37:07.646Z,94854.66
2022-07-25T13:39:35.824Z,94852.78
2022-07-25T13:42:03.588Z,94852.78
2022-07-25T13:44:30.426Z,94856.53
2022-07-25T13:46:58.773Z,94857.81
2022-07-25T13:49:26.108Z,94855.34
2022-07-25T13:51:53.292Z,94857.38
2022-07-25T13:54:20.123Z,94858.41
2022-07-25T13:56:47.612Z,94851.47
2022-07-25T13:59:20.501Z,94855.06
2022-07-25T14:01:47.646Z,94848.25
2022-07-25T14:04:14.626Z,94851.66
2022-07-25T14:06:41.908Z,94841.78
2022-07-25T14:09:09.427Z,94842.59
2022-07-25T14:11:36.661Z,94838.66
2022-07-25T14:14:03.853Z,94822.38
2022-07-25T14:16:31.144Z,94843.25
2022-07-25T14:18:58.070Z,94835.63
2022-07-25T14:21:25.494Z,94835.59
2022-07-25T14:23:52.638Z,94843.72
2022-07-25T14:26:19.769Z,94841.00
2022-07-25T14:28:46.739Z,94835.97
2022-07-25T14:31:13.564Z,94829.44
2022-07-25T14:33:40.759Z,94832.13
2022-07-25T14:36:09.964Z,94837.94
2022-07-25T14:38:36.760Z,94834.88
2022-07-25T14:41:06.655Z,94830.59
2022-07-25T14:43:34.726Z,94827.09
2022-07-25T14:46:01.570Z,94820.16
2022-07-25T14:48:28.611Z,94825.19
2022-07-25T14:50:55.449Z,94823.97
2022-07-25T14:53:22.343Z,94818.59
2022-07-25T14:55:49.172Z,94814.72
2022-07-25T14:58:16.056Z,94819.31
2022-07-25T15:00:43.766Z,94814.00
2022-07-25T15:03:10.926Z,94814.66
2022-07-25T15:05:38.664Z,94825.97
2022-07-25T15:08:06.598Z,94806.56
2022-07-25T15:10:33.584Z,94815.06
2022-07-25T15:13:20.845Z,94814.91
2022-07-25T15:15:48.199Z,94799.75
2022-07-25T15:18:15.087Z,94796.91
2022-07-25T15:20:42.076Z,94793.09
2022-07-25T15:23:08.958Z,94807.78
2022-07-25T15:26:00.631Z,94808.47
2022-07-25T15:28:23.469Z,94806.19
2022-07-25T15:30:51.365Z,94801.59
2022-07-25T15:33:19.108Z,94794.63
2022-07-25T15:35:47.216Z,94796.13
2022-07-25T15:38:15.851Z,94788.38
2022-07-25T15:40:43.671Z,94792.97
2022-07-25T15:43:10.591Z,94792.97
2022-07-25T15:45:41.760Z,94795.81
2022-07-25T15:48:11.094Z,94806.69
2022-07-25T15:50:40.538Z,94800.78
2022-07-25T15:53:07.818Z,94798.94
2022-07-25T15:55:35.250Z,94802.88
2022-07-25T15:58:02.290Z,94790.97
2022-07-25T16:00:29.946Z,94801.38
2022-07-25T16:02:57.529Z,94795.44
2022-07-25T16:05:24.815Z,94803.94
2022-07-25T16:07:52.418Z,94796.56
2022-07-25T16:10:19.480Z,94800.63
2022-07-25T16:12:46.419Z,94807.31
2022-07-25T16:15:13.347Z,94813.31
2022-07-25T16:17:40.465Z,94814.09
2022-07-25T16:20:10.029Z,94820.94
2022-07-25T16:22:37.081Z,94820.69
2022-07-25T16:25:04.575Z,94821.94
2022-07-25T16:27:31.877Z,94823.06
2022-07-25T16:29:59.319Z,94824.19
2022-07-25T16:32:26.127Z,94827.47
2022-07-25T16:34:53.314Z,94823.84
2022-07-25T16:37:21.135Z,94822.06
2022-07-25T16:39:48.013Z,94812.25
2022-07-25T16:42:15.004Z,94813.88
2022-07-25T16:44:41.915Z,94814.81
2022-07-25T16:47:09.245Z,94819.00
2022-07-25T16:49:36.108Z,94822.81
2022-07-25T16:52:02.992Z,94825.50
2022-07-25T16:54:29.830Z,94817.22
2022-07-25T16:56:59.602Z,94814.00
2022-07-25T16:59:26.917Z,94817.69
2022-07-25T17:01:54.066Z,94821.63
2022-07-25T17:04:21.225Z,94815.50
2022-07-25T17:06:49.186Z,94808.59
2022-07-25T17:09:16.312Z,94800.78
2022-07-25T17:11:43.488Z,94806.59
2022-07-25T17:14:10.289Z,94803.19
2022-07-25T17:16:39.456Z,94802.69
2022-07-25T17:19:06.727Z,94801.66
2022-07-25T17:21:33.755Z,94800.66
2022-07-25T17:24:00.573Z,94800.81
2022-07-25T17:26:27.511Z,94782.31
2022-07-25T17:28:55.514Z,94789.22
2022-07-25T17:31:24.315Z,94796.34
2022-07-25T17:33:51.255Z,94792.16
2022-07-25T17:36:19.161Z,94787.19
2022-07-25T17:38:45.983Z,94785.34
2022-07-25T17:41:12.730Z,94791.84
2022-07-25T17:43:40.540Z,94776.00
2022-07-25T17:46:10.441Z,94782.47
2022-07-25T17:48:37.412Z,94781.56
2022-07-25T17:51:06.142Z,94796.56
2022-07-25T17:53:32.971Z,94786.00
2022-07-25T17:55:59.791Z,94786.31
2022-07-25T17:58:26.541Z,94794.22
2022-07-25T18:00:56.864Z,94803.66
2022-07-25T18:03:26.556Z,94798.78
2022-07-25T18:05:54.060Z,94795.72
2022-07-25T18:08:21.638Z,94804.00
2022-07-25T18:10:49.963Z,94805.56
2022-07-25T18:13:17.857Z,94803.84
2022-07-25T18:15:45.884Z,94814.28
2022-07-25T18:18:16.949Z,94809.59
2022-07-25T18:20:47.463Z,94803.19
2022-07-25T18:23:14.387Z,94810.31
2022-07-25T18:25:41.390Z,94818.34
2022-07-25T18:28:08.478Z,94816.09
2022-07-25T18:30:35.304Z,94814.63
2022-07-25T18:33:02.083Z,94812.19
2022-07-25T18:35:29.076Z,94803.81
2022-07-25T18:37:55.881Z,94810.47
2022-07-25T18:40:22.758Z,94814.25
2022-07-25T18:42:49.527Z,94811.78
2022-07-25T18:45:16.354Z,94814.66
2022-07-25T18:47:43.843Z,94817.41
2022-07-25T18:50:10.743Z,94824.00
2022-07-25T18:52:37.884Z,94828.50
2022-07-25T18:55:06.855Z,94833.53
2022-07-25T18:57:33.923Z,94832.66
2022-07-25T19:00:03.396Z,94824.50
2022-07-25T19:02:30.694Z,94840.75
2022-07-25T19:04:57.561Z,94833.69
2022-07-25T19:07:26.021Z,94832.56
2022-07-25T19:09:52.907Z,94838.78
2022-07-25T19:12:19.909Z,94841.75
2022-07-25T19:14:46.822Z,94844.41
2022-07-25T19:17:13.859Z,94848.66
2022-07-25T19:19:40.736Z,94837.91
2022-07-25T19:22:08.176Z,94858.41
2022-07-25T19:24:35.132Z,94863.09
2022-07-25T19:27:06.985Z,94868.16
2022-07-25T19:29:33.933Z,94873.03
2022-07-25T19:32:00.734Z,94873.03
2022-07-25T19:34:28.884Z,94871.81
2022-07-25T19:36:56.485Z,94865.56
2022-07-25T19:39:24.951Z,94860.56
2022-07-25T19:41:52.628Z,94861.56
2022-07-25T19:44:20.173Z,94879.41
2022-07-25T19:46:52.274Z,94879.59
2022-07-25T19:49:19.191Z,94876.78
2022-07-25T19:51:46.104Z,94864.06
2022-07-25T19:54:12.973Z,94866.75
2022-07-25T19:56:39.768Z,94868.13
2022-07-25T19:59:06.687Z,94873.94
2022-07-25T20:01:37.022Z,94881.25
2022-07-25T20:04:05.614Z,94886.25
2022-07-25T20:06:32.780Z,94873.09
2022-07-25T20:08:59.698Z,94874.97
2022-07-25T20:11:26.639Z,94876.63
2022-07-25T20:13:54.717Z,94877.03
2022-07-25T20:16:21.622Z,94873.88
2022-07-25T20:18:48.567Z,94879.19
2022-07-25T20:21:17.961Z,94867.63
2022-07-25T20:23:45.707Z,94881.53
2022-07-25T20:26:13.028Z,94887.63
2022-07-25T20:28:40.087Z,94880.75
2022-07-25T20:31:08.343Z,94882.56
2022-07-25T20:33:36.083Z,94881.44
2022-07-25T20:36:03.389Z,94881.53
2022-07-25T20:38:31.813Z,94881.69
2022-07-25T20:41:00.146Z,94883.78
2022-07-25T20:43:27.190Z,94886.38
2022-07-25T20:45:54.113Z,94878.53
2022-07-25T20:48:20.977Z,94878.19
2022-07-25T20:50:47.946Z,94866.84
2022-07-25T20:53:14.819Z,94862.16
2022-07-25T20:55:42.019Z,94868.06
2022-07-25T20:58:08.866Z,94869.44
2022-07-25T21:00:35.668Z,94868.66
2022-07-25T21:03:02.859Z,94869.25
2022-07-25T21:05:29.751Z,94864.13
2022-07-25T21:07:57.127Z,94865.53
2022-07-25T21:10:24.196Z,94869.81
2022-07-25T21:12:51.234Z,94859.03
2022-07-25T21:15:18.306Z,94882.34
2022-07-25T21:17:45.140Z,94866.69
2022-07-25T21:20:13.741Z,94879.03
2022-07-25T21:22:41.400Z,94876.03
2022-07-25T21:25:08.859Z,94884.78
2022-07-25T21:27:36.632Z,94882.88
2022-07-25T21:30:08.178Z,94877.22
2022-07-25T21:32:35.051Z,94883.28
2022-07-25T21:35:02.588Z,94879.19
2022-07-25T21:37:29.488Z,94873.59
2022-07-25T21:39:56.328Z,94876.84
2022-07-25T21:42:23.096Z,94868.03
2022-07-25T21:44:49.875Z,94867.25
2022-07-25T21:47:16.859Z,94876.31
2022-07-25T21:50:02.149Z,94865.31
2022-07-25T21:52:34.731Z,94873.75
2022-07-25T21:55:04.208Z,94864.31
2022-07-25T21:57:31.573Z,94873.84
2022-07-25T21:59:58.523Z,94861.50
2022-07-25T22:02:25.517Z,94878.06
2022-07-25T22:04:52.481Z,94879.78
2022-07-25T22:07:19.459Z,94867.31
2022-07-25T22:09:46.252Z,94881.94
2022-07-25T22:12:14.156Z,94865.66
2022-07-25T22:14:40.971Z,94854.59
2022-07-25T22:17:08.584Z,94865.06
2022-07-25T22:19:35.389Z,94867.22
2022-07-25T22:22:02.934Z,94852.44
2022-07-25T22:24:29.784Z,94854.06
2022-07-25T22:26:56.615Z,94856.13
2022-07-25T22:29:23.451Z,94837.78
2022-07-25T22:31:50.500Z,94852.50
2022-07-25T22:34:17.457Z,94843.50
2022-07-25T22:36:44.265Z,94842.44
2022-07-25T22:39:12.705Z,94849.19
2022-07-25T22:41:39.629Z,94852.84
2022-07-25T22:44:06.617Z,94843.31
2022-07-25T22:46:34.519Z,94854.72
2022-07-25T22:49:02.224Z,94857.28
2022-07-25T22:51:29.711Z,94854.72
2022-07-25T22:53:58.013Z,94853.34
2022-07-25T22:56:25.880Z,94841.22
2022-07-25T22:58:53.111Z,94825.72
2022-07-25T23:01:20.763Z,94844.44
2022-07-25T23:03:50.198Z,94846.28
2022-07-25T23:06:19.306Z,94841.97
2022-07-25T23:08:46.707Z,94842.75
2022-07-25T23:11:13.510Z,94837.75
2022-07-25T23:13:40.319Z,94845.31
2022-07-25T23:16:10.125Z,94838.81
2022-07-25T23:18:38.084Z,94840.97
2022-07-25T23:21:04.961Z,94833.94
2022-07-25T23:23:32.076Z,94835.50
2022-07-25T23:25:58.985Z,94820.72
2022-07-25T23:28:25.970Z,94821.00
2022-07-25T23:30:52.836Z,94827.66
2022-07-25T23:33:25.300Z,94831.41
2022-07-25T23:35:53.284Z,94815.13
2022-07-25T23:38:20.474Z,94816.09
2022-07-25T23:40:47.431Z,94807.66
2022-07-25T23:43:16.988Z,94802.97
2022-07-25T23:45:59.368Z,94812.97
2022-07-25T23:48:27.843Z,94807.09
2022-07-25T23:50:55.908Z,94803.94
2022-07-25T23:53:22.977Z,94805.31
2022-07-25T23:55:49.782Z,94804.53
2022-07-25T23:58:16.947Z,94812.97
